Time;durP1;ratioP1;P1;durP2;ratioP2;P2;SDS_P1;SDS_P2;PMS_P1;PMS_P2;Temp;Humidity;BMP_temperature;BMP_pressure;BME280_temperature;BME280_humidity;BME280_pressure;Samples;Min_cycle;Max_cycle;Signal;HPM_P1;HPM_P2
2021/11/16 00:03:49;;;;;;;12.18;7.32;;;;;;;12.45;48.90;102048.13;4910046;29;20059;-79
2021/11/16 00:06:38;;;;;;;13.85;8.77;;;;;;;12.48;48.44;102042.50;4934207;29;20043;-79
2021/11/16 00:09:28;;;;;;;11.82;7.22;;;;;;;12.50;47.95;102044.19;4924636;29;20067;-80
2021/11/16 00:11:55;;;;;;;12.07;7.88;;;;;;;12.48;48.65;102043.41;4935083;29;20052;-81
2021/11/16 00:14:22;;;;;;;13.57;8.10;;;;;;;12.48;48.38;102054.28;4918176;29;20056;-80
2021/11/16 00:16:57;;;;;;;11.77;7.68;;;;;;;12.48;48.31;102043.41;4929580;29;20095;-80
2021/11/16 00:19:38;;;;;;;12.30;7.78;;;;;;;12.46;48.18;102048.03;4883073;29;20051;-80
2021/11/16 00:23:14;;;;;;;12.73;8.18;;;;;;;12.45;48.01;102049.00;4938384;28;20139;-80
2021/11/16 00:26:37;;;;;;;13.15;7.68;;;;;;;12.40;48.22;102042.94;4881643;29;20140;-79
2021/11/16 00:29:37;;;;;;;;;;;;;;;;;;;;;
2021/11/16 00:33:15;;;;;;;11.80;7.63;;;;;;;12.36;48.38;102043.19;4970617;28;20540;-79
2021/11/16 00:36:22;;;;;;;10.93;6.80;;;;;;;12.32;48.69;102031.59;4924015;28;20055;-80
2021/11/16 00:39:25;;;;;;;11.52;7.13;;;;;;;12.35;48.76;102036.88;4923501;28;20141;-79
2021/11/16 00:42:37;;;;;;;10.98;6.95;;;;;;;12.40;48.50;102033.91;4973720;28;20414;-79
2021/11/16 00:45:19;;;;;;;13.95;7.60;;;;;;;12.41;48.13;102038.38;4952646;28;20522;-80
2021/11/16 00:48:02;;;;;;;12.80;8.10;;;;;;;12.40;48.67;102023.00;4988399;28;20512;-80
2021/11/16 00:51:00;;;;;;;12.80;7.85;;;;;;;12.43;48.82;102025.56;4939686;28;20062;-79
2021/11/16 00:54:19;;;;;;;;;;;;;;;;;;;;;
2021/11/16 00:57:35;;;;;;;14.60;8.27;;;;;;;12.36;48.30;102027.72;4965700;28;20129;-80
2021/11/16 01:05:13;;;;;;;;;;;;;;;;;;;;;
2021/11/16 01:11:32;;;;;;;;;;;;;;;;;;;;;
2021/11/16 01:14:06;;;;;;;11.65;7.32;;;;;;;12.34;48.45;102009.75;4891715;29;21075;-79
2021/11/16 01:16:41;;;;;;;12.93;8.30;;;;;;;12.34;48.34;102007.91;4904148;29;20077;-79
2021/11/16 01:19:27;;;;;;;13.45;8.30;;;;;;;12.35;48.51;102014.22;4894111;29;20507;-79
2021/11/16 01:22:08;;;;;;;15.10;8.68;;;;;;;12.34;48.31;102017.91;4914967;29;20055;-80
2021/11/16 01:24:39;;;;;;;13.65;8.38;;;;;;;12.35;48.60;102015.09;4875912;29;20409;-79
2021/11/16 01:27:07;;;;;;;13.77;8.07;;;;;;;12.37;48.58;102018.59;4914765;29;20097;-79
2021/11/16 01:29:38;;;;;;;13.15;8.35;;;;;;;12.38;48.32;102022.19;4897438;29;20044;-79
2021/11/16 01:32:25;;;;;;;14.50;8.68;;;;;;;12.40;48.26;102021.16;4927197;29;20074;-79
2021/11/16 01:35:35;;;;;;;13.30;8.05;;;;;;;12.37;48.37;102015.88;4941844;28;20550;-79
2021/11/16 01:38:55;;;;;;;13.32;8.15;;;;;;;12.37;48.11;102015.00;4949607;28;20059;-79
2021/11/16 01:42:29;;;;;;;14.43;7.80;;;;;;;12.34;48.41;102016.06;4845016;29;20053;-79
2021/11/16 01:49:08;;;;;;;;;;;;;;;;;;;;;
2021/11/16 01:55:50;;;;;;;12.52;8.13;;;;;;;12.40;48.51;101995.78;4730085;30;20118;-80
2021/11/16 01:58:58;;;;;;;12.90;7.97;;;;;;;12.42;48.58;102004.75;4795220;29;20458;-79
2021/11/16 02:01:32;;;;;;;14.02;8.38;;;;;;;12.45;48.67;102002.69;4843413;29;20049;-79
2021/11/16 02:05:02;;;;;;;15.27;8.95;;;;;;;12.44;48.52;101995.50;4808297;29;20062;-79
2021/11/16 02:08:45;;;;;;;13.60;8.10;;;;;;;12.43;48.29;101985.59;4807636;29;20054;-79
2021/11/16 02:11:53;;;;;;;13.30;7.78;;;;;;;12.46;48.32;101982.66;4820420;29;20178;-79
2021/11/16 02:18:15;;;;;;;13.30;7.80;;;;;;;12.45;48.65;101983.63;4812370;29;20055;-79
2021/11/16 02:20:51;;;;;;;15.38;8.30;;;;;;;12.50;48.71;101983.41;4794174;29;20067;-79
2021/11/16 02:23:27;;;;;;;14.85;8.43;;;;;;;12.50;48.66;101980.66;4820879;29;20050;-79
2021/11/16 02:26:00;;;;;;;13.18;7.78;;;;;;;12.50;48.76;101973.38;4863956;29;20414;-79
2021/11/16 02:31:44;;;;;;;12.23;7.28;;;;;;;12.53;48.69;101975.91;4932012;29;20447;-79
2021/11/16 02:34:20;;;;;;;14.30;7.78;;;;;;;12.54;48.69;101966.78;4913699;29;20058;-79
2021/11/16 02:37:41;;;;;;;13.25;7.75;;;;;;;12.56;48.76;101966.69;4930384;29;20123;-79
2021/11/16 02:40:56;;;;;;;15.82;7.65;;;;;;;12.57;48.63;101963.00;4955820;28;20061;-79
2021/11/16 02:43:27;;;;;;;14.45;7.90;;;;;;;12.58;48.74;101967.50;4981956;28;20133;-79
2021/11/16 02:46:21;;;;;;;;;;;;;;;;;;;;;
2021/11/16 02:49:24;;;;;;;;;;;;;;;;;;;;;
2021/11/16 02:52:41;;;;;;;13.45;8.15;;;;;;;12.60;48.20;101954.63;4964719;28;20055;-79
2021/11/16 02:55:41;;;;;;;13.25;7.22;;;;;;;12.60;48.49;101956.50;4932052;28;20042;-79
2021/11/16 03:02:36;;;;;;;;;;;;;;;;;;;;;
2021/11/16 03:05:20;;;;;;;12.32;7.28;;;;;;;12.54;48.39;101964.03;4888771;29;20070;-79
2021/11/16 03:08:01;;;;;;;12.02;6.88;;;;;;;12.58;48.16;101964.75;4897314;29;20048;-80
2021/11/16 03:10:58;;;;;;;13.38;7.75;;;;;;;12.53;48.19;101956.84;4887188;29;20068;-80
2021/11/16 03:13:49;;;;;;;15.48;8.90;;;;;;;12.52;48.46;101956.91;4888578;29;20084;-79
2021/11/16 03:16:20;;;;;;;14.23;8.10;;;;;;;12.51;48.16;101960.63;4895863;29;20052;-80
2021/11/16 03:18:49;;;;;;;13.05;8.23;;;;;;;12.51;48.53;101956.06;4912506;29;20087;-79
2021/11/16 03:21:26;;;;;;;12.82;8.05;;;;;;;12.49;48.35;101951.66;4927792;29;20059;-79
2021/11/16 03:24:35;;;;;;;14.88;7.90;;;;;;;12.48;48.30;101947.19;4886407;29;20052;-79
2021/11/16 03:27:33;;;;;;;15.38;8.27;;;;;;;12.47;48.51;101950.88;4928165;29;20043;-80
2021/11/16 03:30:18;;;;;;;14.48;8.20;;;;;;;12.47;48.32;101943.56;4897433;28;20454;-80
2021/11/16 03:32:49;;;;;;;13.00;7.47;;;;;;;12.46;48.41;101940.94;4928407;29;20107;-80
2021/11/16 03:35:28;;;;;;;14.45;8.20;;;;;;;12.45;48.41;101944.63;4885135;29;20051;-80
2021/11/16 03:38:11;;;;;;;;;;;;;;;12.21;48.84;101938.72;4916131;29;20511;-79
2021/11/16 03:44:44;;;;;;;12.05;6.85;;;;;;;12.44;48.62;101937.41;4909794;29;20050;-79
2021/11/16 03:47:17;;;;;;;11.63;6.88;;;;;;;12.45;48.86;101942.78;4935743;29;20426;-79
2021/11/16 03:50:11;;;;;;;;;;;;;;;;;;;;;
2021/11/16 03:53:17;;;;;;;11.75;6.75;;;;;;;12.43;48.87;101933.84;4951588;29;20439;-79
2021/11/16 03:56:36;;;;;;;10.90;6.47;;;;;;;12.47;48.47;101943.56;4947078;28;20047;-79
2021/11/16 03:59:33;;;;;;;12.57;6.82;;;;;;;12.47;48.76;101937.25;4939767;28;20054;-80
2021/11/16 04:03:06;;;;;;;;;;;;;;;;;;;;;
2021/11/16 04:06:21;;;;;;;12.13;6.95;;;;;;;12.47;48.38;101939.97;4902832;29;20396;-79
2021/11/16 04:09:14;;;;;;;10.95;6.30;;;;;;;12.44;48.43;101940.13;4887575;29;20052;-79
2021/11/16 04:11:44;;;;;;;10.63;6.45;;;;;;;12.49;48.64;101946.22;4908394;29;20067;-80
2021/11/16 04:14:28;;;;;;;12.25;6.85;;;;;;;12.46;48.63;101939.09;4924175;29;20054;-80
2021/11/16 04:17:13;;;;;;;12.85;6.88;;;;;;;12.49;48.57;101938.94;4915981;29;20591;-80
2021/11/16 04:20:01;;;;;;;12.77;7.70;;;;;;;12.47;48.46;101931.81;4892632;29;20055;-80
2021/11/16 04:22:30;;;;;;;13.63;7.68;;;;;;;12.47;48.86;101948.16;4923086;29;20480;-80
2021/11/16 04:25:04;;;;;;;12.97;7.60;;;;;;;12.45;48.93;101937.34;4942325;29;20043;-82
2021/11/16 04:27:57;;;;;;;11.90;7.18;;;;;;;12.46;48.18;101932.75;4933723;29;20308;-79
2021/11/16 04:34:06;;;;;;;11.20;7.20;;;;;;;12.45;48.42;101934.59;4901545;29;20127;-80
2021/11/16 04:36:53;;;;;;;14.77;8.30;;;;;;;12.46;48.36;101933.66;4958030;28;20070;-79
2021/11/16 04:39:53;;;;;;;12.63;7.18;;;;;;;12.46;48.55;101924.59;4944173;28;20053;-79
2021/11/16 04:42:41;;;;;;;13.90;7.68;;;;;;;12.43;48.90;101924.78;4955389;28;20474;-79
2021/11/16 04:45:22;;;;;;;14.15;7.95;;;;;;;12.47;48.51;101934.53;4971183;28;20086;-79
2021/11/16 04:50:58;;;;;;;14.43;7.72;;;;;;;12.44;48.48;101926.53;4974868;28;20112;-79
2021/11/16 05:04:50;;;;;;;13.75;7.47;;;;;;;12.44;48.78;101934.69;4980162;28;20517;-79
2021/11/16 05:11:04;;;;;;;14.45;7.72;;;;;;;12.40;48.64;101939.44;4882693;29;20439;-79
2021/11/16 05:13:39;;;;;;;;;;;;;;;12.17;49.24;101940.75;4930314;29;20070;-79
2021/11/16 05:16:08;;;;;;;13.55;7.20;;;;;;;12.36;48.52;101931.53;4880546;29;19926;-79
2021/11/16 05:18:42;;;;;;;14.77;8.20;;;;;;;12.41;48.41;101938.50;4920099;29;20074;-79
2021/11/16 05:21:22;;;;;;;14.15;8.18;;;;;;;12.40;48.84;101935.84;4867755;29;20519;-79
2021/11/16 05:24:01;;;;;;;15.95;8.88;;;;;;;12.37;48.68;101933.28;4926510;29;20063;-78
2021/11/16 05:26:28;;;;;;;12.90;7.22;;;;;;;12.37;48.71;101936.88;4927252;29;20059;-78
2021/11/16 05:28:57;;;;;;;14.15;8.27;;;;;;;12.38;48.52;101935.94;4931231;29;20074;-78
2021/11/16 05:31:25;;;;;;;14.05;8.68;;;;;;;12.38;48.63;101940.50;4925999;29;20052;-78
2021/11/16 05:33:54;;;;;;;15.30;8.80;;;;;;;12.37;48.94;101941.47;4916318;29;20562;-78
2021/11/16 05:36:22;;;;;;;15.23;8.50;;;;;;;12.35;48.65;101936.13;4933277;29;20122;-78
2021/11/16 05:38:49;;;;;;;15.27;8.65;;;;;;;12.34;48.66;101934.38;4929858;29;20048;-79
2021/11/16 05:41:17;;;;;;;13.98;8.63;;;;;;;12.36;48.33;101934.25;4929961;29;20056;-79
2021/11/16 05:43:45;;;;;;;16.33;8.77;;;;;;;12.34;48.40;101930.75;4931951;29;20047;-80
2021/11/16 05:46:14;;;;;;;15.60;8.52;;;;;;;12.34;48.85;101938.94;4933561;29;20056;-78
2021/11/16 05:48:42;;;;;;;14.98;8.48;;;;;;;12.33;48.57;101931.72;4961106;28;20529;-78
2021/11/16 05:51:10;;;;;;;15.65;9.13;;;;;;;12.31;48.64;101942.69;4974054;28;20125;-79
2021/11/16 05:53:40;;;;;;;16.50;9.38;;;;;;;12.31;48.97;101939.09;4974257;28;20054;-79
2021/11/16 05:56:07;;;;;;;15.00;8.30;;;;;;;12.31;48.91;101939.97;4974007;28;20105;-78
2021/11/16 05:58:34;;;;;;;13.95;8.75;;;;;;;12.30;48.77;101934.59;4971200;28;20093;-79
2021/11/16 06:01:03;;;;;;;15.82;8.50;;;;;;;12.31;48.94;101933.66;4966715;28;20051;-79
2021/11/16 06:03:29;;;;;;;14.50;8.70;;;;;;;12.30;48.86;101935.50;4972524;28;20391;-78
2021/11/16 06:05:56;;;;;;;15.48;8.90;;;;;;;12.31;48.76;101941.81;4972973;28;20074;-79
2021/11/16 06:08:28;;;;;;;14.00;8.43;;;;;;;12.33;48.87;101943.50;4974028;28;20051;-79
2021/11/16 06:10:58;;;;;;;15.18;8.75;;;;;;;12.31;48.56;101939.97;4952231;28;20051;-79
2021/11/16 06:13:50;;;;;;;15.85;9.05;;;;;;;12.33;48.53;101943.50;4967232;28;20463;-80
2021/11/16 06:16:24;;;;;;;13.40;7.65;;;;;;;12.29;48.88;101943.75;4978127;28;20047;-80
2021/11/16 06:18:55;;;;;;;15.32;8.48;;;;;;;12.31;48.79;101944.53;4960557;28;20051;-80
2021/11/16 06:21:23;;;;;;;14.98;8.60;;;;;;;12.30;48.70;101946.38;4966632;28;20096;-80
2021/11/16 06:23:50;;;;;;;15.02;8.82;;;;;;;12.29;48.85;101946.47;4983312;28;20076;-80
2021/11/16 06:26:16;;;;;;;15.57;9.02;;;;;;;12.30;48.91;101945.50;4996990;28;20117;-80
2021/11/16 06:28:43;;;;;;;14.68;8.93;;;;;;;12.29;48.77;101941.91;4967577;28;20054;-80
2021/11/16 06:31:14;;;;;;;12.60;7.60;;;;;;;12.30;48.72;101945.50;4956182;28;20097;-80
2021/11/16 06:33:41;;;;;;;16.33;8.98;;;;;;;12.30;48.96;101940.06;4966818;28;20050;-79
2021/11/16 06:36:11;;;;;;;16.38;9.68;;;;;;;12.29;48.93;101938.28;4974401;28;20086;-80
2021/11/16 06:38:41;;;;;;;15.40;9.10;;;;;;;12.30;48.56;101949.09;4972072;28;20039;-80
2021/11/16 06:41:07;;;;;;;17.27;9.25;;;;;;;12.27;48.88;101942.97;4971405;28;20061;-79
2021/11/16 06:43:34;;;;;;;17.20;9.73;;;;;;;12.28;49.01;101945.59;4972814;28;20161;-80
2021/11/16 06:46:03;;;;;;;16.50;9.38;;;;;;;12.29;48.74;101951.91;4962432;28;20672;-79
2021/11/16 06:48:30;;;;;;;14.05;8.45;;;;;;;12.29;49.02;101954.63;4971144;28;20047;-78
2021/11/16 06:51:04;;;;;;;17.33;8.82;;;;;;;12.30;48.83;101954.56;4969996;28;20054;-81
2021/11/16 06:53:34;;;;;;;14.77;9.00;;;;;;;12.32;49.18;101963.53;4964406;28;20070;-77
2021/11/16 06:56:04;;;;;;;15.77;8.95;;;;;;;12.34;48.94;101960.72;4974669;28;20054;-78
2021/11/16 06:58:34;;;;;;;16.83;9.38;;;;;;;12.35;48.79;101965.19;4979207;28;20078;-79
2021/11/16 07:01:06;;;;;;;17.38;9.75;;;;;;;12.36;48.80;101965.09;4976989;28;20129;-77
2021/11/16 07:03:37;;;;;;;18.30;10.35;;;;;;;12.35;48.94;101960.63;4972708;28;20051;-81
2021/11/16 07:06:04;;;;;;;16.50;9.60;;;;;;;12.38;49.22;101965.00;4960499;28;20059;-84
2021/11/16 07:08:40;;;;;;;15.68;9.30;;;;;;;12.41;49.13;101954.84;4974428;28;20145;-87
2021/11/16 07:11:27;;;;;;;15.60;9.57;;;;;;;12.39;48.98;101962.19;4968889;28;20047;-81
2021/11/16 07:14:01;;;;;;;17.70;9.75;;;;;;;12.41;49.15;101968.44;4970826;28;20363;-86
2021/11/16 07:16:31;;;;;;;16.20;9.20;;;;;;;12.43;48.82;101969.25;4972947;28;20084;-90
2021/11/16 07:19:33;;;;;;;19.88;10.85;;;;;;;12.45;49.19;101967.28;4947270;28;20043;-88
2021/11/16 07:22:37;;;;;;;17.90;10.13;;;;;;;12.43;48.96;101966.53;4960450;28;20062;-89
2021/11/16 07:25:13;;;;;;;20.33;11.43;;;;;;;12.46;49.13;101969.06;4961205;28;20063;-87
2021/11/16 07:27:51;;;;;;;17.70;10.55;;;;;;;12.48;49.16;101974.41;4945770;28;20473;-90
2021/11/16 07:30:25;;;;;;;20.42;11.45;;;;;;;12.47;49.07;101976.25;4956956;28;20062;-86
2021/11/16 07:33:13;;;;;;;22.15;11.90;;;;;;;12.47;48.93;101976.25;4973315;28;20077;-87
2021/11/16 07:35:43;;;;;;;19.13;11.15;;;;;;;12.47;48.91;101973.53;4970811;28;20058;-87
2021/11/16 07:38:15;;;;;;;22.02;11.68;;;;;;;12.48;49.02;101985.31;4968597;28;20046;-87
2021/11/16 07:40:46;;;;;;;21.47;11.90;;;;;;;12.46;48.97;101982.66;4969315;28;20051;-87
2021/11/16 07:43:20;;;;;;;20.83;10.77;;;;;;;12.49;48.92;101979.78;4978093;28;20073;-88
2021/11/16 07:45:48;;;;;;;;;;;;;;;12.25;49.84;101983.00;4969330;28;20538;-87
2021/11/16 07:48:20;;;;;;;18.83;9.80;;;;;;;12.46;49.32;101985.41;4971467;28;19926;-75
2021/11/16 07:50:54;;;;;;;17.75;10.35;;;;;;;12.48;49.56;101985.31;4972403;28;20055;-75
2021/11/16 07:53:27;;;;;;;19.80;11.20;;;;;;;12.50;49.35;101987.00;4964674;28;20360;-84
2021/11/16 07:55:53;;;;;;;20.88;11.88;;;;;;;12.48;49.52;101977.16;4967119;28;20054;-83
2021/11/16 08:02:28;;;;;;;21.77;12.60;;;;;;;12.51;49.36;101982.44;4835563;29;20141;-85
2021/11/16 08:09:16;;;;;;;19.13;10.63;;;;;;;12.54;49.12;101974.94;4847048;29;20367;-85
2021/11/16 08:11:50;;;;;;;21.85;11.18;;;;;;;12.52;49.01;101976.88;4862384;29;20059;-86
2021/11/16 08:14:57;;;;;;;20.98;11.88;;;;;;;12.52;49.26;101976.00;4847846;29;20061;-86
2021/11/16 08:17:40;;;;;;;20.67;11.10;;;;;;;12.48;48.89;101975.31;4854229;29;20053;-85
2021/11/16 08:20:29;;;;;;;20.73;11.38;;;;;;;12.44;49.17;101975.53;4840047;29;20056;-86
2021/11/16 08:23:05;;;;;;;19.88;10.90;;;;;;;12.45;49.24;101977.31;4858849;29;20049;-84
2021/11/16 08:25:41;;;;;;;22.05;12.00;;;;;;;12.38;49.16;101974.06;4856321;29;20060;-87
2021/11/16 08:28:10;;;;;;;23.35;11.90;;;;;;;12.35;49.40;101979.69;4860192;29;20502;-87
2021/11/16 08:30:37;;;;;;;24.10;13.15;;;;;;;12.31;49.47;101982.66;4866825;29;20529;-85
2021/11/16 08:33:06;;;;;;;23.50;12.65;;;;;;;12.27;49.31;101981.94;4901892;29;20279;-85
2021/11/16 08:35:33;;;;;;;23.45;13.45;;;;;;;12.23;49.23;101982.22;4901670;29;20075;-84
2021/11/16 08:38:02;;;;;;;25.33;13.63;;;;;;;12.20;49.37;101983.25;4933920;28;20043;-85
2021/11/16 08:40:39;;;;;;;24.25;12.80;;;;;;;12.18;49.67;101983.38;4958041;28;20133;-85
2021/11/16 08:43:17;;;;;;;23.08;12.15;;;;;;;12.13;49.99;101974.56;4971524;28;20063;-85
2021/11/16 08:45:53;;;;;;;20.27;11.88;;;;;;;12.12;49.74;101978.25;4969453;28;20495;-84
2021/11/16 08:48:35;;;;;;;22.40;12.15;;;;;;;12.12;50.10;101970.06;4970727;28;20050;-90
2021/11/16 08:51:08;;;;;;;22.85;12.68;;;;;;;12.10;50.07;101966.56;4968199;28;20061;-90
2021/11/16 08:53:39;;;;;;;22.25;12.18;;;;;;;12.10;50.12;101974.75;4968404;28;20078;-85
2021/11/16 08:56:13;;;;;;;21.38;12.27;;;;;;;12.09;50.22;101961.22;4981107;28;20054;-85
2021/11/16 08:59:10;;;;;;;20.90;11.88;;;;;;;12.08;50.66;101963.06;4972502;28;20055;-85
2021/11/16 09:01:36;;;;;;;20.40;11.82;;;;;;;12.06;50.25;101964.97;4961256;28;20054;-84
2021/11/16 09:04:06;;;;;;;21.35;11.15;;;;;;;12.07;50.02;101947.69;4965996;28;20055;-85
2021/11/16 09:06:37;;;;;;;24.95;12.07;;;;;;;12.08;50.65;101954.00;4985890;28;20057;-83
2021/11/16 09:09:11;;;;;;;23.73;12.70;;;;;;;12.07;50.53;101955.84;4979662;28;20453;-86
2021/11/16 09:12:02;;;;;;;21.80;12.20;;;;;;;12.06;50.90;101956.81;4965899;28;20085;-85
2021/11/16 09:14:31;;;;;;;20.27;11.48;;;;;;;12.08;50.51;101956.72;4971426;28;20461;-84
2021/11/16 09:17:09;;;;;;;19.42;11.63;;;;;;;12.10;50.25;101957.53;4966127;28;20145;-84
2021/11/16 09:19:37;;;;;;;22.50;12.73;;;;;;;12.07;50.60;101958.56;4953945;28;20062;-83
2021/11/16 09:22:04;;;;;;;21.42;12.27;;;;;;;12.09;50.42;101958.50;4993537;28;20062;-84
2021/11/16 09:24:36;;;;;;;22.58;12.50;;;;;;;12.11;50.47;101962.88;4977050;28;20398;-84
2021/11/16 09:29:36;;;;;;;19.23;10.50;;;;;;;12.10;50.55;101952.97;4974213;28;20067;-84
2021/11/16 09:32:10;;;;;;;18.30;10.73;;;;;;;12.13;50.60;101954.63;4966524;28;20059;-85
2021/11/16 09:34:43;;;;;;;22.02;11.88;;;;;;;12.12;50.98;101955.56;4955406;28;20062;-85
2021/11/16 09:37:19;;;;;;;;;;;;;;;11.87;51.45;101949.72;4960815;28;20055;-86
2021/11/16 09:39:47;;;;;;;23.65;11.73;;;;;;;12.08;50.80;101951.28;4958451;28;19922;-86
2021/11/16 09:42:46;;;;;;;19.35;9.88;;;;;;;12.13;50.67;101947.34;4946894;28;20414;-87
2021/11/16 09:45:16;;;;;;;20.10;10.43;;;;;;;12.11;50.43;101948.38;4910861;29;20095;-85
2021/11/16 09:47:44;;;;;;;17.73;9.80;;;;;;;12.11;50.53;101948.38;4899311;29;20095;-85
2021/11/16 09:50:15;;;;;;;20.30;11.25;;;;;;;12.12;50.85;101941.97;4904072;29;20510;-84
2021/11/16 09:52:53;;;;;;;20.95;11.30;;;;;;;12.13;50.96;101939.16;4911204;29;20074;-84
2021/11/16 09:55:23;;;;;;;20.05;10.70;;;;;;;12.11;50.40;101935.63;4924409;29;20458;-84
2021/11/16 09:57:56;;;;;;;21.98;11.30;;;;;;;12.11;50.70;101934.75;4923090;29;20052;-85
2021/11/16 10:04:46;;;;;;;18.60;10.15;;;;;;;12.05;51.05;101932.38;4806628;29;20054;-85
2021/11/16 10:07:22;;;;;;;19.40;10.48;;;;;;;12.02;50.89;101921.69;4868827;29;20056;-83
2021/11/16 10:09:50;;;;;;;20.17;10.43;;;;;;;12.04;50.68;101923.34;4863495;29;20132;-83
2021/11/16 10:12:23;;;;;;;19.20;10.45;;;;;;;12.06;50.66;101920.53;4871020;29;20094;-84
2021/11/16 10:15:03;;;;;;;19.77;10.02;;;;;;;12.03;50.81;101921.59;4838627;29;20137;-84
2021/11/16 10:20:43;;;;;;;20.10;9.70;;;;;;;12.04;50.98;101917.03;4867642;29;20116;-82
2021/11/16 10:23:39;;;;;;;20.42;10.20;;;;;;;12.04;50.87;101917.91;4926720;29;20055;-81
2021/11/16 10:26:43;;;;;;;19.58;10.23;;;;;;;12.02;50.86;101906.25;4862922;29;20741;-82
2021/11/16 10:29:23;;;;;;;19.70;10.50;;;;;;;12.04;51.07;101907.00;4834024;29;20073;-82
2021/11/16 10:32:18;;;;;;;21.23;11.25;;;;;;;12.04;51.25;101901.56;4830293;29;20053;-82
2021/11/16 10:35:18;;;;;;;19.48;10.60;;;;;;;12.03;50.75;101901.66;4834400;29;20049;-81
2021/11/16 10:37:59;;;;;;;17.77;9.60;;;;;;;12.02;50.98;101897.19;4849087;29;20623;-80
2021/11/16 10:44:58;;;;;;;19.13;10.52;;;;;;;11.96;51.31;101894.78;4854561;29;20164;-81
2021/11/16 10:48:12;;;;;;;20.30;10.55;;;;;;;12.03;51.33;101893.47;4822676;29;20118;-79
2021/11/16 10:51:11;;;;;;;17.98;9.80;;;;;;;12.07;51.21;101895.97;4808880;29;20046;-78
2021/11/16 10:58:04;;;;;;;17.80;9.48;;;;;;;12.07;51.29;101885.06;4847250;29;20413;-81
2021/11/16 11:00:55;;;;;;;17.35;9.15;;;;;;;12.11;51.20;101874.88;4840167;29;20073;-81
2021/11/16 11:03:26;;;;;;;15.15;8.45;;;;;;;12.11;50.94;101874.88;4878374;29;20133;-82
2021/11/16 11:05:59;;;;;;;16.63;8.98;;;;;;;12.15;50.80;101876.47;4896328;29;20060;-79
2021/11/16 11:08:31;;;;;;;15.60;8.88;;;;;;;12.14;51.27;101869.25;4916717;29;20063;-78
2021/11/16 11:10:58;;;;;;;16.83;9.30;;;;;;;12.14;50.80;101871.97;4943013;28;20051;-81
2021/11/16 11:13:32;;;;;;;13.27;8.27;;;;;;;12.18;50.73;101868.13;4930946;29;20078;-79
2021/11/16 11:15:59;;;;;;;17.65;8.90;;;;;;;12.19;51.06;101864.41;4930534;29;20051;-79
2021/11/16 11:18:38;;;;;;;17.33;8.50;;;;;;;12.24;51.24;101869.63;4920236;29;20052;-79
2021/11/16 11:21:10;;;;;;;15.60;8.98;;;;;;;12.25;51.17;101860.50;4962415;28;20050;-80
2021/11/16 11:23:41;;;;;;;15.15;8.32;;;;;;;12.24;50.95;101856.00;4972088;28;20050;-80
2021/11/16 11:29:13;;;;;;;16.13;9.00;;;;;;;12.25;50.92;101855.03;4976101;28;20101;-79
2021/11/16 11:31:50;;;;;;;17.55;8.98;;;;;;;12.26;51.23;101852.25;4944047;29;20130;-79
2021/11/16 11:34:18;;;;;;;16.52;8.63;;;;;;;12.25;50.76;101852.31;4973556;28;20057;-80
2021/11/16 11:36:44;;;;;;;15.25;8.52;;;;;;;12.25;50.84;101845.03;4983587;28;20572;-80
2021/11/16 11:39:17;;;;;;;15.10;8.43;;;;;;;12.28;51.08;101847.56;4983747;28;20079;-79
2021/11/16 11:41:56;;;;;;;16.27;8.73;;;;;;;12.29;51.16;101848.44;4933873;29;20051;-80
2021/11/16 11:44:38;;;;;;;14.75;7.70;;;;;;;12.29;51.02;101848.44;4922764;29;20161;-80
2021/11/16 11:47:05;;;;;;;14.93;7.22;;;;;;;12.30;51.20;101842.03;4909613;29;20043;-80
2021/11/16 11:49:45;;;;;;;13.48;6.95;;;;;;;12.34;50.98;101840.91;5068890;27;20406;-68
2021/11/16 11:52:12;;;;;;;12.07;7.05;;;;;;;12.35;51.02;101831.75;5043351;28;20076;-68
2021/11/16 11:54:38;;;;;;;13.63;7.30;;;;;;;12.38;50.95;101835.16;5052094;28;20751;-68
2021/11/16 11:57:05;;;;;;;10.73;6.20;;;;;;;12.40;50.94;101837.81;5052354;28;20053;-68
2021/11/16 11:59:32;;;;;;;12.20;6.70;;;;;;;12.43;50.90;101829.47;5040824;28;20495;-67
2021/11/16 12:01:59;;;;;;;11.93;6.47;;;;;;;12.44;50.89;101836.63;5063413;28;20546;-67
2021/11/16 12:04:26;;;;;;;12.05;6.35;;;;;;;12.46;50.78;101830.13;5065110;28;20057;-67
2021/11/16 12:06:53;;;;;;;12.70;6.38;;;;;;;12.47;50.86;101825.56;5075871;28;20127;-68
2021/11/16 12:09:21;;;;;;;12.40;6.70;;;;;;;12.48;50.95;101830.94;5076204;28;20518;-68
2021/11/16 12:11:48;;;;;;;12.13;6.93;;;;;;;12.49;50.93;101829.97;5091580;28;20139;-68
2021/11/16 12:14:47;;;;;;;13.13;7.03;;;;;;;12.49;51.32;101826.38;5100680;28;20853;-68
2021/11/16 12:17:23;;;;;;;12.90;6.65;;;;;;;12.54;51.10;101826.97;5072920;28;20048;-67
2021/11/16 12:19:52;;;;;;;11.02;6.32;;;;;;;12.52;51.03;101818.88;5066199;28;20447;-67
2021/11/16 12:22:23;;;;;;;11.48;6.47;;;;;;;12.56;51.26;101816.84;5096254;28;20052;-68
2021/11/16 12:24:59;;;;;;;14.43;6.90;;;;;;;12.58;51.22;101815.81;5096745;28;20056;-67
2021/11/16 12:27:34;;;;;;;11.85;6.80;;;;;;;12.60;51.00;101817.56;5090921;28;20071;-67
2021/11/16 12:30:02;;;;;;;12.27;6.60;;;;;;;12.57;51.14;101814.06;5083298;28;20074;-67
2021/11/16 12:32:35;;;;;;;12.32;7.00;;;;;;;12.60;51.29;101815.69;5081560;28;20074;-68
2021/11/16 12:35:15;;;;;;;13.98;7.30;;;;;;;12.62;50.91;101810.16;5069434;28;20047;-67
2021/11/16 12:37:46;;;;;;;12.95;6.80;;;;;;;12.62;50.98;101805.59;5098942;28;20079;-67
2021/11/16 12:40:19;;;;;;;11.65;7.07;;;;;;;12.63;50.95;101809.19;5081168;28;20052;-67
2021/11/16 12:43:07;;;;;;;12.02;6.60;;;;;;;12.61;51.00;101805.66;5087232;28;20737;-67
2021/11/16 12:45:45;;;;;;;12.45;6.72;;;;;;;12.63;51.04;101807.34;5071452;28;20056;-67
2021/11/16 12:48:15;;;;;;;12.48;6.78;;;;;;;12.63;51.16;101806.47;5060597;28;20080;-67
2021/11/16 12:51:13;;;;;;;11.85;6.30;;;;;;;12.61;51.28;101800.22;5085830;28;20095;-67
2021/11/16 12:53:53;;;;;;;10.80;5.97;;;;;;;12.64;51.36;101795.47;5095401;28;20055;-67
2021/11/16 12:56:46;;;;;;;12.27;6.10;;;;;;;12.60;51.09;101791.16;5080121;28;20046;-67
2021/11/16 12:59:23;;;;;;;12.05;6.22;;;;;;;12.65;51.17;101799.09;5075487;28;20048;-67
2021/11/16 13:01:49;;;;;;;11.85;6.85;;;;;;;12.64;51.08;101797.31;5068515;28;20520;-67
2021/11/16 13:04:37;;;;;;;14.45;6.97;;;;;;;12.66;51.04;101793.53;5067161;28;20679;-67
2021/11/16 13:07:25;;;;;;;10.85;6.28;;;;;;;12.65;51.23;101791.78;5064399;28;20075;-67
2021/11/16 13:10:02;;;;;;;12.50;6.43;;;;;;;12.65;51.03;101794.50;5062215;28;20076;-67
2021/11/16 13:12:52;;;;;;;12.07;6.72;;;;;;;12.64;51.03;101792.75;5047387;28;20049;-67
2021/11/16 13:15:27;;;;;;;12.18;6.45;;;;;;;12.65;51.00;101793.63;5058477;28;20509;-67
2021/11/16 13:17:56;;;;;;;13.07;7.00;;;;;;;12.64;50.69;101792.75;5059064;28;20076;-68
2021/11/16 13:20:26;;;;;;;12.13;6.55;;;;;;;12.67;51.26;101788.97;5042689;28;20060;-67
2021/11/16 13:22:57;;;;;;;13.77;7.60;;;;;;;12.67;51.14;101789.84;5065518;28;20075;-67
2021/11/16 13:25:35;;;;;;;14.88;7.93;;;;;;;12.69;51.22;101784.28;5073218;28;20063;-67
2021/11/16 13:31:06;;;;;;;16.15;8.57;;;;;;;12.67;51.11;101781.69;5051974;28;20048;-67
2021/11/16 13:33:47;;;;;;;14.63;7.88;;;;;;;12.69;51.24;101781.56;5084835;28;20048;-67
2021/11/16 13:36:22;;;;;;;15.18;8.05;;;;;;;12.68;51.12;101778.00;5087763;28;20573;-67
2021/11/16 13:38:55;;;;;;;14.15;7.55;;;;;;;12.69;50.97;101773.38;5062913;28;20102;-67
2021/11/16 13:41:55;;;;;;;13.25;7.57;;;;;;;12.65;50.95;101770.00;5059228;28;20124;-67
2021/11/16 13:44:44;;;;;;;13.02;7.35;;;;;;;12.66;51.09;101762.69;5048775;28;20142;-67
2021/11/16 13:47:17;;;;;;;12.00;6.80;;;;;;;12.63;51.05;101769.19;5064159;28;20466;-67
2021/11/16 13:49:54;;;;;;;12.77;6.95;;;;;;;12.64;51.23;101762.78;5073925;28;20136;-68
2021/11/16 13:52:27;;;;;;;12.20;6.32;;;;;;;12.64;51.01;101761.91;5079508;28;20040;-67
2021/11/16 13:54:59;;;;;;;11.68;6.30;;;;;;;12.64;51.10;101764.63;5063402;28;20127;-68
2021/11/16 13:57:29;;;;;;;12.47;6.33;;;;;;;12.65;50.98;101756.38;5057131;28;20106;-67